Impacts TAF Board
For situational awareness. Not to be used for flight planning purposes.
IDs:

KMEM - Memphis Intl, TN, US

Issued at 0259 UTC 14 Dec 2018
Updated at 0507 UTC 14 Dec 2018
Potential Impact None Slight Moderate High
Time<<14/18Z 14/19Z 14/20Z 14/21Z 14/22Z 14/23Z 15/00Z 15/01Z 15/02Z 15/03Z 15/04Z 15/05Z 15/06Z>>
Type PRVL PRVL PRVL PRVL PRVL PRVL PRVL PRVL PRVL PRVL PRVL PRVL
VIS 4 4 4 4 4 4 4 4 4 4 4 4
CIG 9 9 9 9 9 9 9 9 9 9 9 9
Cover OVC OVC OVC OVC OVC OVC OVC OVC OVC OVC OVC OVC
FltCat IFR IFR IFR IFR IFR IFR IFR IFR IFR IFR IFR IFR
WX -SHRA VCTS -SHRA VCTS -SHRA VCTS -SHRA VCTS -SHRA VCTS -SHRA VCTS -SHRA VCTS -SHRA VCTS -SHRA VCTS -SHRA VCTS -SHRA VCTS -SHRA VCTS
WDir 70 70 70 70 70 70 70 70 70 70 70 70
WSpd 10 10 10 10 10 10 10 10 10 10 10 10
WGst -- -- -- -- -- -- -- -- -- -- -- --
Raw TAF
KMEM 140259Z 1403/1506 12011KT 4SM -SHRA BR OVC015 WS020/17045KT
  FM140900 09008KT 4SM -SHRA BR OVC007
  FM141500 07010KT 4SM -SHRA VCTS OVC009CB


METAR Board
Radar Display
Forecast Discussion
For situational awareness. Not to be used for flight planning purposes.